createdAt,value
2023-02-15T00:00:26.570Z,19.53
2023-02-15T00:02:55.037Z,19.51
2023-02-15T00:05:23.480Z,19.49
2023-02-15T00:07:51.871Z,19.49
2023-02-15T00:10:20.571Z,19.48
2023-02-15T00:12:48.965Z,19.48
2023-02-15T00:15:18.863Z,19.46
2023-02-15T00:17:47.327Z,19.46
2023-02-15T00:20:15.770Z,19.45
2023-02-15T00:22:44.118Z,19.44
2023-02-15T00:25:12.615Z,19.43
2023-02-15T00:27:41.032Z,19.43
2023-02-15T00:30:10.230Z,19.41
2023-02-15T00:32:40.078Z,19.39
2023-02-15T00:35:09.631Z,19.39
2023-02-15T00:37:38.302Z,19.37
2023-02-15T00:40:08.258Z,19.34
2023-02-15T00:42:36.701Z,19.36
2023-02-15T00:45:05.527Z,19.34
2023-02-15T00:47:34.435Z,19.33
2023-02-15T00:50:04.464Z,19.32
2023-02-15T00:52:33.065Z,19.31
2023-02-15T00:55:01.471Z,19.31
2023-02-15T00:57:30.582Z,19.30
2023-02-15T00:59:59.024Z,19.30
2023-02-15T01:02:27.513Z,19.28
2023-02-15T01:04:55.984Z,19.27
2023-02-15T01:07:26.200Z,19.27
2023-02-15T01:09:54.661Z,19.27
2023-02-15T01:12:23.067Z,19.26
2023-02-15T01:14:51.520Z,19.25
2023-02-15T01:17:21.665Z,19.26
2023-02-15T01:19:50.164Z,19.26
2023-02-15T01:22:21.493Z,19.25
2023-02-15T01:24:52.304Z,19.25
2023-02-15T01:27:20.745Z,19.24
2023-02-15T01:29:49.279Z,19.24
2023-02-15T01:32:17.736Z,19.23
2023-02-15T01:34:46.194Z,19.22
2023-02-15T01:37:15.348Z,19.22
2023-02-15T01:39:44.254Z,19.21
2023-02-15T01:42:14.810Z,19.21
2023-02-15T01:44:50.483Z,19.20
2023-02-15T01:47:24.085Z,19.20
2023-02-15T01:50:01.703Z,19.20
2023-02-15T01:52:31.381Z,19.20
2023-02-15T01:55:00.366Z,19.19
2023-02-15T01:57:30.584Z,19.19
2023-02-15T02:00:03.363Z,19.18
2023-02-15T02:02:57.409Z,19.18
2023-02-15T02:05:41.731Z,19.18
2023-02-15T02:08:27.363Z,19.17
2023-02-15T02:10:55.996Z,19.17
2023-02-15T02:13:25.963Z,19.14
2023-02-15T02:16:02.849Z,19.16
2023-02-15T02:18:43.806Z,19.14
2023-02-15T02:21:55.661Z,19.13
2023-02-15T02:24:53.770Z,19.14
2023-02-15T02:27:34.778Z,19.13
2023-02-15T02:30:40.216Z,19.13
2023-02-15T02:33:55.100Z,19.12
2023-02-15T02:36:33.085Z,19.12
2023-02-15T02:39:14.167Z,19.12
2023-02-15T02:41:49.487Z,19.12
2023-02-15T02:44:23.019Z,19.11
2023-02-15T02:46:56.151Z,19.11
2023-02-15T02:49:37.159Z,19.11
2023-02-15T02:52:07.755Z,19.10
2023-02-15T02:54:37.785Z,19.11
2023-02-15T02:57:10.646Z,19.11
2023-02-15T02:59:43.375Z,19.10
2023-02-15T03:02:16.999Z,19.10
2023-02-15T03:04:50.930Z,19.10
2023-02-15T03:07:23.355Z,19.09
2023-02-15T03:09:55.160Z,19.09
2023-02-15T03:12:26.719Z,19.08
2023-02-15T03:15:02.007Z,19.08
2023-02-15T03:17:34.978Z,19.09
2023-02-15T03:20:09.192Z,19.08
2023-02-15T03:22:42.590Z,19.08
2023-02-15T03:25:20.633Z,19.07
2023-02-15T03:27:56.086Z,19.09
2023-02-15T03:30:26.000Z,19.08
2023-02-15T03:33:00.686Z,19.07
2023-02-15T03:35:38.414Z,19.07
2023-02-15T03:38:09.854Z,19.06
2023-02-15T03:40:59.523Z,19.06
2023-02-15T03:43:35.378Z,19.06
2023-02-15T03:46:09.919Z,19.06
2023-02-15T03:48:46.426Z,19.05
2023-02-15T03:51:39.052Z,19.06
2023-02-15T03:54:10.812Z,19.06
2023-02-15T03:56:41.843Z,19.05
2023-02-15T03:59:27.782Z,19.05
2023-02-15T04:02:08.516Z,19.04
2023-02-15T04:04:38.968Z,19.04
2023-02-15T04:07:10.227Z,19.02
2023-02-15T04:09:56.163Z,19.02
2023-02-15T04:12:25.100Z,19.02
2023-02-15T04:15:11.194Z,19.03
2023-02-15T04:17:39.980Z,19.01
2023-02-15T04:20:27.821Z,19.01
2023-02-15T04:23:15.181Z,19.01
2023-02-15T04:25:43.584Z,19.01
2023-02-15T04:28:12.089Z,19.01
2023-02-15T04:30:40.462Z,19.00
2023-02-15T04:33:08.914Z,18.99
2023-02-15T04:35:37.318Z,19.01
2023-02-15T04:38:07.103Z,18.98
2023-02-15T04:40:35.507Z,18.99
2023-02-15T04:43:03.912Z,18.99
2023-02-15T04:45:32.388Z,18.98
2023-02-15T04:48:00.885Z,18.98
2023-02-15T04:50:29.300Z,18.98
2023-02-15T04:52:57.761Z,18.98
2023-02-15T04:55:27.911Z,18.96
2023-02-15T04:57:56.306Z,18.95
2023-02-15T05:00:24.771Z,18.95
2023-02-15T05:02:53.175Z,18.94
2023-02-15T05:05:21.543Z,18.95
2023-02-15T05:07:49.959Z,18.95
2023-02-15T05:10:18.565Z,18.94
2023-02-15T05:12:48.463Z,18.94
2023-02-15T05:15:16.971Z,18.94
2023-02-15T05:17:45.483Z,18.94
2023-02-15T05:20:14.025Z,18.93
2023-02-15T05:22:42.756Z,18.93
2023-02-15T05:25:28.864Z,18.93
2023-02-15T05:28:16.435Z,18.92
2023-02-15T05:30:45.064Z,18.92
2023-02-15T05:33:13.533Z,18.91
2023-02-15T05:35:41.997Z,18.89
2023-02-15T05:38:10.493Z,18.89
2023-02-15T05:40:39.024Z,18.88
2023-02-15T05:43:08.865Z,18.89
2023-02-15T05:45:37.242Z,18.88
2023-02-15T05:48:05.799Z,18.88
2023-02-15T05:50:34.244Z,18.88
2023-02-15T05:53:02.727Z,18.87
2023-02-15T05:55:31.113Z,18.86
2023-02-15T05:57:59.614Z,18.87
2023-02-15T06:00:29.346Z,18.86
2023-02-15T06:02:57.815Z,18.86
2023-02-15T06:05:26.267Z,18.84
2023-02-15T06:07:54.723Z,18.86
2023-02-15T06:10:23.184Z,18.84
2023-02-15T06:12:51.589Z,18.84
2023-02-15T06:15:19.987Z,18.83
2023-02-15T06:17:49.733Z,18.84
2023-02-15T06:20:18.319Z,18.83
2023-02-15T06:22:46.723Z,18.82
2023-02-15T06:25:15.449Z,18.83
2023-02-15T06:27:44.492Z,18.82
2023-02-15T06:30:14.102Z,18.82
2023-02-15T06:32:42.633Z,18.81
2023-02-15T06:35:12.466Z,18.82
2023-02-15T06:37:41.304Z,18.82
2023-02-15T06:40:10.883Z,18.81
2023-02-15T06:42:39.386Z,18.81
2023-02-15T06:45:08.615Z,18.81
2023-02-15T06:47:37.292Z,18.81
2023-02-15T06:50:06.758Z,18.81
2023-02-15T06:52:36.665Z,18.81
2023-02-15T06:55:05.482Z,18.81
2023-02-15T06:57:34.097Z,18.84
2023-02-15T07:00:02.681Z,18.88
2023-02-15T07:02:32.311Z,18.90
2023-02-15T07:05:00.872Z,19.07
2023-02-15T07:07:29.409Z,19.32
2023-02-15T07:09:59.336Z,19.52
2023-02-15T07:12:46.971Z,19.74
2023-02-15T07:15:18.102Z,20.01
2023-02-15T07:17:46.758Z,20.22
2023-02-15T07:20:17.991Z,20.42
2023-02-15T07:22:46.799Z,20.61
2023-02-15T07:25:17.074Z,20.79
2023-02-15T07:27:45.901Z,20.97
2023-02-15T07:30:17.172Z,21.12
2023-02-15T07:33:05.442Z,21.27
2023-02-15T07:35:34.680Z,21.41
2023-02-15T07:38:03.318Z,21.53
2023-02-15T07:40:33.138Z,21.62
2023-02-15T07:43:01.572Z,21.68
2023-02-15T07:45:29.986Z,21.74
2023-02-15T07:47:58.460Z,21.76
2023-02-15T07:50:26.887Z,21.74
2023-02-15T07:52:55.346Z,21.70
2023-02-15T07:55:23.882Z,21.68
2023-02-15T07:57:58.778Z,21.57
2023-02-15T08:00:27.512Z,21.49
2023-02-15T08:03:16.450Z,21.41
2023-02-15T08:05:46.742Z,21.34
2023-02-15T08:08:30.509Z,21.27
2023-02-15T08:11:21.546Z,21.19
2023-02-15T08:13:55.706Z,21.15
2023-02-15T08:16:26.081Z,21.12
2023-02-15T08:18:54.747Z,21.08
2023-02-15T08:21:25.057Z,21.13
2023-02-15T08:23:53.808Z,21.11
2023-02-15T08:26:22.433Z,21.08
2023-02-15T08:28:52.737Z,21.08
2023-02-15T08:31:22.052Z,21.06
2023-02-15T08:33:51.920Z,21.06
2023-02-15T08:36:22.615Z,21.02
2023-02-15T08:38:51.263Z,20.90
2023-02-15T08:41:21.912Z,20.78
2023-02-15T08:43:54.630Z,20.69
2023-02-15T08:46:24.807Z,20.66
2023-02-15T08:48:53.736Z,20.61
2023-02-15T08:51:23.964Z,20.61
2023-02-15T08:53:53.867Z,20.58
2023-02-15T08:56:27.824Z,20.57
2023-02-15T08:58:58.247Z,20.54
2023-02-15T09:01:29.583Z,20.52
2023-02-15T09:04:00.124Z,20.49
2023-02-15T09:06:29.845Z,20.47
2023-02-15T09:08:58.682Z,20.45
2023-02-15T09:11:29.282Z,20.42
2023-02-15T09:14:01.180Z,20.41
2023-02-15T09:16:32.211Z,20.42
2023-02-15T09:19:02.254Z,20.41
2023-02-15T09:21:30.908Z,20.39
2023-02-15T09:24:01.997Z,20.37
2023-02-15T09:26:32.496Z,20.36
2023-02-15T09:29:04.483Z,20.35
2023-02-15T09:31:35.618Z,20.32
2023-02-15T09:34:04.253Z,20.32
2023-02-15T09:36:35.287Z,20.32
2023-02-15T09:39:09.696Z,20.30
2023-02-15T09:42:04.660Z,20.27
2023-02-15T09:44:51.030Z,20.25
2023-02-15T09:47:38.900Z,20.23
2023-02-15T09:50:19.100Z,20.21
2023-02-15T09:52:54.267Z,20.19
2023-02-15T09:55:36.851Z,20.16
2023-02-15T09:58:12.928Z,20.12
2023-02-15T10:00:53.356Z,20.11
2023-02-15T10:03:35.559Z,20.08
2023-02-15T10:06:20.822Z,20.06
2023-02-15T10:09:01.262Z,20.03
2023-02-15T10:11:43.529Z,20.02
2023-02-15T10:14:38.698Z,20.01
2023-02-15T10:17:21.893Z,19.99
2023-02-15T10:20:01.951Z,19.97
2023-02-15T10:22:35.901Z,19.94
2023-02-15T10:25:22.263Z,19.95
2023-02-15T10:27:51.414Z,19.92
2023-02-15T10:30:25.892Z,19.90
2023-02-15T10:33:01.736Z,19.88
2023-02-15T10:35:42.274Z,19.87
2023-02-15T10:38:26.554Z,19.86
2023-02-15T10:41:09.062Z,19.84
2023-02-15T10:43:50.614Z,19.83
2023-02-15T10:46:36.350Z,19.82
2023-02-15T10:49:25.969Z,19.81
2023-02-15T10:52:08.290Z,19.80
2023-02-15T10:54:43.373Z,19.80
2023-02-15T10:57:22.604Z,19.77
2023-02-15T11:00:06.029Z,19.74
2023-02-15T11:02:48.622Z,19.72
2023-02-15T11:05:39.251Z,19.70
2023-02-15T11:08:11.408Z,19.69
2023-02-15T11:10:44.460Z,19.67
2023-02-15T11:13:16.698Z,19.66
2023-02-15T11:15:49.298Z,19.63
2023-02-15T11:18:25.847Z,19.61
2023-02-15T11:21:01.839Z,19.58
2023-02-15T11:23:30.883Z,19.57
2023-02-15T11:26:02.272Z,19.56
2023-02-15T11:28:35.976Z,19.56
2023-02-15T11:31:15.302Z,19.56
2023-02-15T11:33:48.431Z,19.57
2023-02-15T11:36:22.310Z,19.55
2023-02-15T11:38:57.315Z,19.56
2023-02-15T11:41:30.470Z,19.54
2023-02-15T11:44:03.401Z,19.53
2023-02-15T11:46:32.129Z,19.54
2023-02-15T11:49:00.685Z,19.53
2023-02-15T11:51:31.135Z,19.52
2023-02-15T11:53:59.661Z,19.52
2023-02-15T11:56:28.288Z,19.51
2023-02-15T11:59:00.507Z,19.49
2023-02-15T12:01:34.423Z,19.50
2023-02-15T12:04:07.323Z,19.51
2023-02-15T12:06:43.372Z,19.53
2023-02-15T12:09:23.374Z,19.54
2023-02-15T12:11:51.972Z,19.52
2023-02-15T12:14:21.250Z,19.51
2023-02-15T12:16:52.248Z,19.51
2023-02-15T12:19:32.988Z,19.49
2023-02-15T12:22:05.521Z,19.49
2023-02-15T12:24:38.938Z,19.48
2023-02-15T12:27:16.603Z,19.48
2023-02-15T12:29:48.479Z,19.49
2023-02-15T12:32:20.653Z,19.49
2023-02-15T12:34:51.071Z,19.48
2023-02-15T12:37:24.698Z,19.49
2023-02-15T12:39:55.703Z,19.49
2023-02-15T12:42:25.399Z,19.53
2023-02-15T12:45:00.729Z,19.54
2023-02-15T12:47:31.537Z,19.56
2023-02-15T12:50:17.543Z,19.59
2023-02-15T12:52:49.934Z,19.60
2023-02-15T12:55:26.442Z,19.61
2023-02-15T12:58:10.962Z,19.61
2023-02-15T13:00:39.581Z,19.62
2023-02-15T13:06:50.791Z,19.66
2023-02-15T13:09:26.198Z,19.66
2023-02-15T13:11:54.928Z,19.67
2023-02-15T13:14:27.516Z,19.70
2023-02-15T13:17:00.980Z,19.69
2023-02-15T13:19:36.424Z,19.68
2023-02-15T13:22:12.193Z,19.70
2023-02-15T13:24:46.086Z,19.70
2023-02-15T13:27:18.596Z,19.70
2023-02-15T13:29:50.433Z,19.73
2023-02-15T13:32:28.280Z,19.72
2023-02-15T13:34:59.907Z,19.71
2023-02-15T13:37:43.929Z,19.72
2023-02-15T13:40:18.010Z,19.72
2023-02-15T13:42:49.090Z,19.72
2023-02-15T13:45:44.085Z,19.74
2023-02-15T13:48:29.427Z,19.71
2023-02-15T13:51:11.500Z,19.72
2023-02-15T13:53:59.145Z,19.72
2023-02-15T13:56:42.965Z,19.74
2023-02-15T13:59:35.718Z,19.75
2023-02-15T14:02:36.236Z,19.76
2023-02-15T14:05:30.129Z,19.76
2023-02-15T14:08:08.619Z,19.78
2023-02-15T14:10:45.994Z,19.77
2023-02-15T14:13:46.111Z,19.74
2023-02-15T14:16:22.161Z,19.71
2023-02-15T14:18:58.026Z,19.68
2023-02-15T14:21:33.153Z,19.66
2023-02-15T14:24:18.913Z,19.64
2023-02-15T14:26:55.569Z,19.63
2023-02-15T14:29:40.427Z,19.62
2023-02-15T14:32:13.643Z,19.60
2023-02-15T14:34:48.794Z,19.60
2023-02-15T14:37:25.294Z,19.59
2023-02-15T14:40:18.423Z,19.58
2023-02-15T14:42:55.940Z,19.57
2023-02-15T14:45:33.736Z,19.56
2023-02-15T14:48:11.095Z,19.55
2023-02-15T14:50:47.877Z,19.54
2023-02-15T14:53:36.958Z,19.54
2023-02-15T14:56:24.558Z,19.53
2023-02-15T14:59:02.421Z,19.52
2023-02-15T15:01:34.645Z,19.51
2023-02-15T15:04:06.483Z,19.51
2023-02-15T15:06:36.730Z,19.49
2023-02-15T15:09:14.276Z,19.50
2023-02-15T15:11:48.167Z,19.50
2023-02-15T15:14:42.008Z,19.55
2023-02-15T15:17:15.152Z,19.59
2023-02-15T15:20:14.801Z,19.62
2023-02-15T15:22:44.776Z,19.67
2023-02-15T15:25:29.500Z,19.69
2023-02-15T15:27:58.008Z,19.70
2023-02-15T15:30:55.621Z,19.71
2023-02-15T15:34:00.027Z,19.72
2023-02-15T15:36:55.183Z,19.73
2023-02-15T15:39:59.688Z,19.74
2023-02-15T15:42:36.247Z,19.74
2023-02-15T15:45:37.476Z,19.74
2023-02-15T15:48:30.484Z,19.76
2023-02-15T15:51:02.697Z,19.76
2023-02-15T15:53:40.971Z,19.76
2023-02-15T15:56:16.109Z,19.76
2023-02-15T15:58:48.609Z,19.75
2023-02-15T16:01:17.299Z,19.76
2023-02-15T16:03:53.487Z,19.77
2023-02-15T16:06:31.957Z,19.77
2023-02-15T16:09:12.153Z,19.78
2023-02-15T16:11:41.484Z,19.78
2023-02-15T16:14:14.905Z,19.78
2023-02-15T16:16:51.497Z,19.78
2023-02-15T16:19:24.428Z,19.79
2023-02-15T16:21:56.645Z,19.77
2023-02-15T16:24:40.960Z,19.78
2023-02-15T16:27:35.838Z,19.76
2023-02-15T16:30:22.572Z,19.75
2023-02-15T16:32:51.426Z,19.75
2023-02-15T16:35:22.359Z,19.73
2023-02-15T16:37:52.561Z,19.72
2023-02-15T16:40:33.245Z,19.74
2023-02-15T16:43:05.233Z,19.73
2023-02-15T16:45:34.093Z,19.74
2023-02-15T16:48:07.550Z,19.74
2023-02-15T16:50:39.163Z,19.75
2023-02-15T16:53:18.874Z,19.75
2023-02-15T16:55:52.215Z,19.75
2023-02-15T16:58:27.885Z,19.75
2023-02-15T17:01:01.848Z,19.74
2023-02-15T17:03:30.510Z,19.74
2023-02-15T17:06:01.016Z,19.75
2023-02-15T17:08:32.980Z,19.71
2023-02-15T17:11:12.854Z,19.65
2023-02-15T17:14:02.132Z,19.61
2023-02-15T17:16:34.080Z,19.59
2023-02-15T17:19:04.172Z,19.59
2023-02-15T17:21:35.294Z,19.63
2023-02-15T17:24:06.072Z,19.64
2023-02-15T17:26:37.235Z,19.64
2023-02-15T17:29:16.748Z,19.64
2023-02-15T17:31:50.565Z,19.65
2023-02-15T17:34:48.783Z,19.65
2023-02-15T17:37:27.516Z,19.65
2023-02-15T17:40:01.030Z,19.66
2023-02-15T17:42:29.957Z,19.65
2023-02-15T17:44:58.337Z,19.69
2023-02-15T17:47:29.998Z,19.70
2023-02-15T17:49:58.474Z,19.70
2023-02-15T17:52:31.346Z,19.69
2023-02-15T17:55:24.806Z,19.69
2023-02-15T17:57:53.336Z,19.70
2023-02-15T18:00:39.961Z,19.71
2023-02-15T18:03:28.979Z,19.70
2023-02-15T18:06:16.500Z,19.71
2023-02-15T18:09:02.357Z,19.71
2023-02-15T18:11:35.305Z,19.72
2023-02-15T18:14:03.829Z,19.72
2023-02-15T18:16:35.659Z,19.73
2023-02-15T18:19:24.302Z,19.72
2023-02-15T18:22:00.768Z,19.72
2023-02-15T18:24:29.186Z,19.72
2023-02-15T18:26:59.022Z,19.72
2023-02-15T18:29:27.769Z,19.72
2023-02-15T18:31:58.103Z,19.72
2023-02-15T18:34:29.681Z,19.73
2023-02-15T18:37:00.886Z,19.73
2023-02-15T18:39:37.986Z,19.71
2023-02-15T18:42:21.516Z,19.71
2023-02-15T18:44:50.459Z,19.73
2023-02-15T18:47:18.923Z,19.74
2023-02-15T18:49:47.446Z,19.72
2023-02-15T18:52:18.373Z,19.73
2023-02-15T18:54:49.013Z,19.71
2023-02-15T18:57:18.918Z,19.70
2023-02-15T18:59:47.362Z,19.71
2023-02-15T19:02:17.560Z,19.70
2023-02-15T19:04:47.209Z,19.69
2023-02-15T19:07:19.526Z,19.67
2023-02-15T19:09:51.862Z,19.67
2023-02-15T19:12:21.791Z,19.66
2023-02-15T19:14:51.735Z,19.66
2023-02-15T19:17:22.080Z,19.65
2023-02-15T19:19:52.110Z,19.63
2023-02-15T19:22:25.762Z,19.65
2023-02-15T19:24:56.049Z,19.64
2023-02-15T19:27:29.072Z,19.62
2023-02-15T19:29:59.019Z,19.65
2023-02-15T19:32:28.390Z,19.65
2023-02-15T19:34:56.916Z,19.62
2023-02-15T19:37:30.795Z,19.60
2023-02-15T19:39:59.477Z,19.59
2023-02-15T19:42:29.958Z,19.54
2023-02-15T19:44:58.482Z,19.52
2023-02-15T19:47:29.263Z,19.51
2023-02-15T19:50:03.313Z,19.47
2023-02-15T19:52:31.753Z,19.45
2023-02-15T19:55:00.268Z,19.42
2023-02-15T19:57:31.459Z,19.39
2023-02-15T20:00:09.520Z,19.37
2023-02-15T20:02:44.517Z,19.34
2023-02-15T20:05:13.369Z,19.32
2023-02-15T20:07:45.608Z,19.29
2023-02-15T20:10:18.440Z,19.28
2023-02-15T20:12:48.793Z,19.26
2023-02-15T20:15:20.025Z,19.25
2023-02-15T20:17:48.784Z,19.24
2023-02-15T20:20:18.442Z,19.21
2023-02-15T20:22:48.917Z,19.22
2023-02-15T20:25:20.883Z,19.20
2023-02-15T20:27:50.679Z,19.19
2023-02-15T20:30:21.795Z,19.18
2023-02-15T20:32:50.649Z,19.18
2023-02-15T20:35:21.259Z,19.14
2023-02-15T20:37:52.317Z,19.16
2023-02-15T20:40:23.833Z,19.15
2023-02-15T20:42:53.686Z,19.14
2023-02-15T20:45:24.011Z,19.13
2023-02-15T20:47:53.633Z,19.12
2023-02-15T20:50:25.210Z,19.12
2023-02-15T20:52:56.437Z,19.12
2023-02-15T20:55:26.805Z,19.11
2023-02-15T20:57:56.818Z,19.12
2023-02-15T21:00:28.187Z,19.10
2023-02-15T21:02:58.609Z,19.11
2023-02-15T21:05:30.135Z,19.10
2023-02-15T21:07:59.362Z,19.10
2023-02-15T21:10:29.548Z,19.10
2023-02-15T21:13:00.933Z,19.09
2023-02-15T21:15:32.532Z,19.09
2023-02-15T21:18:03.074Z,19.09
2023-02-15T21:20:33.367Z,19.08
2023-02-15T21:23:05.300Z,19.08
2023-02-15T21:25:36.446Z,19.07
2023-02-15T21:28:08.368Z,19.07
2023-02-15T21:30:37.048Z,19.07
2023-02-15T21:33:05.599Z,19.08
2023-02-15T21:35:34.085Z,19.06
2023-02-15T21:38:02.614Z,19.06
2023-02-15T21:40:32.698Z,19.05
2023-02-15T21:43:18.743Z,19.05
2023-02-15T21:46:11.478Z,19.04
2023-02-15T21:48:39.929Z,19.04
2023-02-15T21:51:26.141Z,19.05
2023-02-15T21:53:54.657Z,19.04
2023-02-15T21:56:24.328Z,19.04
2023-02-15T21:58:52.881Z,19.02
2023-02-15T22:01:27.015Z,19.04
2023-02-15T22:03:58.682Z,19.01
2023-02-15T22:06:27.209Z,19.00
2023-02-15T22:08:55.651Z,19.02
2023-02-15T22:11:24.027Z,19.00
2023-02-15T22:13:52.894Z,19.01
2023-02-15T22:16:23.903Z,19.01
2023-02-15T22:18:52.414Z,19.00
2023-02-15T22:21:20.966Z,19.00
2023-02-15T22:23:49.403Z,19.00
2023-02-15T22:26:22.938Z,18.99
2023-02-15T22:28:52.097Z,18.99
2023-02-15T22:31:24.041Z,18.99
2023-02-15T22:33:54.609Z,18.99
2023-02-15T22:36:25.385Z,18.98
2023-02-15T22:38:54.713Z,18.97
2023-02-15T22:41:26.175Z,18.98
2023-02-15T22:43:54.786Z,18.98
2023-02-15T22:46:26.153Z,18.97
2023-02-15T22:48:54.858Z,18.97
2023-02-15T22:51:25.479Z,18.97
2023-02-15T22:53:54.160Z,18.94
2023-02-15T22:56:27.060Z,18.96
2023-02-15T22:59:01.892Z,18.96
2023-02-15T23:01:34.257Z,18.95
2023-02-15T23:04:04.031Z,18.95
2023-02-15T23:06:34.147Z,18.94
2023-02-15T23:09:02.858Z,18.94
2023-02-15T23:11:31.313Z,18.94
2023-02-15T23:13:59.811Z,18.95
2023-02-15T23:16:28.314Z,18.93
2023-02-15T23:18:58.309Z,18.93
2023-02-15T23:21:30.703Z,18.92
2023-02-15T23:24:11.586Z,18.92
2023-02-15T23:26:40.045Z,18.92
2023-02-15T23:29:14.644Z,18.92
2023-02-15T23:31:45.099Z,18.91
2023-02-15T23:34:18.185Z,18.91
2023-02-15T23:36:47.222Z,18.92
2023-02-15T23:39:36.286Z,18.92
2023-02-15T23:42:07.711Z,18.91
2023-02-15T23:44:36.797Z,18.91
2023-02-15T23:47:05.925Z,18.89
2023-02-15T23:49:36.106Z,18.90
2023-02-15T23:52:10.730Z,18.90
2023-02-15T23:54:39.242Z,18.90
2023-02-15T23:57:07.712Z,18.88
2023-02-15T23:59:36.942Z,18.88
